createdAt,value
2019-04-06T00:02:32.684Z,14.80
2019-04-06T00:07:36.213Z,12.00
2019-04-06T00:12:39.608Z,15.27
2019-04-06T00:17:42.988Z,13.97
2019-04-06T00:22:46.372Z,14.23
2019-04-06T00:27:49.755Z,15.07
2019-04-06T00:33:06.687Z,17.23
2019-04-06T00:38:10.075Z,9.30
2019-04-06T00:43:13.455Z,10.70
2019-04-06T00:48:16.827Z,11.23
2019-04-06T00:53:20.276Z,14.20
2019-04-06T00:58:23.670Z,22.20
2019-04-06T01:03:27.051Z,11.70
2019-04-06T01:08:30.439Z,13.33
2019-04-06T01:13:33.831Z,17.87
2019-04-06T01:18:37.207Z,23.60
2019-04-06T01:23:40.586Z,9.67
2019-04-06T01:28:43.967Z,8.83
2019-04-06T01:33:47.357Z,14.10
2019-04-06T01:38:50.743Z,8.57
2019-04-06T01:43:54.131Z,11.90
2019-04-06T01:48:57.507Z,21.57
2019-04-06T01:54:00.898Z,15.53
2019-04-06T01:59:04.343Z,14.67
2019-04-06T02:04:07.802Z,13.00
2019-04-06T02:09:11.215Z,19.17
2019-04-06T02:14:14.651Z,19.80
2019-04-06T02:19:18.103Z,15.50
2019-04-06T02:24:21.491Z,16.00
2019-04-06T02:29:24.891Z,16.80
2019-04-06T02:34:29.910Z,16.97
2019-04-06T02:39:43.863Z,12.27
2019-04-06T02:44:47.240Z,16.90
2019-04-06T02:49:50.636Z,15.00
2019-04-06T02:54:54.043Z,13.73
2019-04-06T02:59:57.588Z,11.60
2019-04-06T03:05:01.105Z,15.20
2019-04-06T03:10:06.112Z,11.03
2019-04-06T03:15:09.691Z,19.33
2019-04-06T03:20:13.295Z,13.40
2019-04-06T03:25:16.670Z,15.50
2019-04-06T03:30:20.268Z,16.87
2019-04-06T03:35:23.680Z,16.30
2019-04-06T03:40:27.076Z,13.20
2019-04-06T03:45:30.465Z,24.57
2019-04-06T03:50:33.863Z,16.90
2019-04-06T03:55:37.244Z,16.40
2019-04-06T04:00:40.672Z,19.70
2019-04-06T04:05:44.088Z,13.47
2019-04-06T04:10:48.071Z,12.53
2019-04-06T04:15:51.539Z,11.10
2019-04-06T04:20:55.102Z,14.43
2019-04-06T04:25:58.493Z,11.67
2019-04-06T04:31:01.889Z,20.93
2019-04-06T04:36:05.328Z,20.27
2019-04-06T04:41:08.794Z,14.73
2019-04-06T04:46:12.277Z,10.90
2019-04-06T04:51:15.647Z,12.43
2019-04-06T04:56:19.028Z,13.30
2019-04-06T05:01:22.412Z,18.17
2019-04-06T05:06:25.797Z,20.90
2019-04-06T05:11:29.179Z,11.77
2019-04-06T05:16:32.559Z,11.90
2019-04-06T05:21:35.947Z,12.70
2019-04-06T05:26:39.337Z,15.43
2019-04-06T05:31:42.720Z,13.47
2019-04-06T05:36:46.091Z,9.90
2019-04-06T05:41:50.786Z,14.10
2019-04-06T05:46:54.439Z,15.90
2019-04-06T05:51:57.823Z,11.43
2019-04-06T05:57:01.222Z,18.23
2019-04-06T06:02:04.873Z,17.67
2019-04-06T06:07:08.290Z,9.67
2019-04-06T06:12:12.858Z,22.70
2019-04-06T06:17:16.247Z,15.10
2019-04-06T06:22:19.627Z,5.60
2019-04-06T06:27:23.381Z,14.63
2019-04-06T06:32:26.926Z,13.87
2019-04-06T06:37:30.342Z,18.90
2019-04-06T06:42:33.892Z,11.23
2019-04-06T06:47:37.299Z,14.30
2019-04-06T06:52:40.695Z,15.27
2019-04-06T06:57:44.074Z,10.13
2019-04-06T07:02:47.471Z,12.27
2019-04-06T07:07:50.871Z,18.10
2019-04-06T07:12:54.246Z,6.97
2019-04-06T07:17:57.677Z,9.77
2019-04-06T07:23:01.103Z,17.00
2019-04-06T07:28:04.490Z,11.93
2019-04-06T07:33:07.877Z,12.13
2019-04-06T07:38:11.267Z,6.97
2019-04-06T07:43:14.662Z,7.53
2019-04-06T07:48:18.311Z,9.30
2019-04-06T07:53:21.700Z,5.40
2019-04-06T07:58:25.087Z,7.40
2019-04-06T08:03:28.471Z,8.13
2019-04-06T08:08:31.903Z,6.17
2019-04-06T08:13:35.292Z,7.63
2019-04-06T08:18:38.699Z,9.80
2019-04-06T08:23:42.093Z,7.70
2019-04-06T08:28:45.497Z,8.70
2019-04-06T08:33:48.955Z,12.10
2019-04-06T08:38:52.340Z,8.43
2019-04-06T08:43:55.797Z,13.73
2019-04-06T08:48:59.202Z,11.13
2019-04-06T08:54:02.597Z,11.23
2019-04-06T08:59:11.626Z,6.97
2019-04-06T09:04:11.160Z,9.43
2019-04-06T09:09:14.539Z,7.03
2019-04-06T09:14:17.938Z,11.70
2019-04-06T09:19:21.315Z,7.33
2019-04-06T09:24:24.700Z,6.23
2019-04-06T09:29:28.143Z,9.87
2019-04-06T09:34:31.588Z,17.70
2019-04-06T09:39:35.007Z,7.20
2019-04-06T09:44:45.875Z,7.70
2019-04-06T09:50:06.906Z,6.30
2019-04-06T09:55:17.636Z,13.93
2019-04-06T10:00:25.442Z,9.13
2019-04-06T10:05:33.395Z,4.87
2019-04-06T10:10:56.086Z,6.17
2019-04-06T10:16:07.071Z,6.43
2019-04-06T10:21:14.920Z,8.27
2019-04-06T10:26:36.063Z,8.97
2019-04-06T10:31:41.096Z,6.30
2019-04-06T10:36:48.943Z,5.90
2019-04-06T10:41:59.635Z,6.97
2019-04-06T10:47:07.625Z,10.70
2019-04-06T10:52:12.647Z,4.37
2019-04-06T10:57:23.835Z,10.60
2019-04-06T11:02:44.579Z,7.93
2019-04-06T11:07:49.612Z,6.03
2019-04-06T11:13:00.416Z,7.80
2019-04-06T11:18:08.546Z,8.27
2019-04-06T11:23:25.382Z,8.40
2019-04-06T11:28:30.470Z,6.97
2019-04-06T11:33:41.287Z,7.10
2019-04-06T11:39:01.544Z,6.77
2019-04-06T11:44:09.648Z,7.90
2019-04-06T11:49:30.935Z,8.70
2019-04-06T11:54:36.263Z,4.90
2019-04-06T11:59:41.487Z,19.93
2019-04-06T12:04:58.723Z,10.50
2019-04-06T12:10:12.216Z,5.07
2019-04-06T12:15:29.065Z,9.10
2019-04-06T12:20:36.771Z,6.90
2019-04-06T12:25:41.823Z,11.50
2019-04-06T12:30:52.920Z,9.00
2019-04-06T12:36:06.810Z,10.00
2019-04-06T12:41:18.261Z,7.63
2019-04-06T12:46:35.288Z,9.17
2019-04-06T12:51:46.225Z,9.53
2019-04-06T12:56:59.981Z,8.60
2019-04-06T13:02:14.084Z,9.23
2019-04-06T13:07:25.166Z,6.10
2019-04-06T13:12:36.047Z,9.73
2019-04-06T13:17:41.305Z,7.07
2019-04-06T13:27:49.205Z,6.13
2019-04-06T13:33:02.134Z,7.80
2019-04-06T13:38:07.167Z,7.17
2019-04-06T13:43:30.849Z,10.73
2019-04-06T13:48:35.964Z,8.43
2019-04-06T13:53:57.234Z,6.60
2019-04-06T13:59:02.260Z,7.03
2019-04-06T14:04:07.295Z,8.63
2019-04-06T14:09:15.474Z,8.70
2019-04-06T14:14:36.739Z,7.90
2019-04-06T14:19:53.934Z,6.10
2019-04-06T14:25:05.044Z,5.43
2019-04-06T14:30:22.463Z,4.40
2019-04-06T14:35:39.106Z,3.63
2019-04-06T14:41:00.033Z,3.70
2019-04-06T14:46:20.977Z,4.07
2019-04-06T14:51:40.746Z,5.20
2019-04-06T14:56:45.787Z,3.53
2019-04-06T15:02:07.251Z,3.90
2019-04-06T15:07:24.397Z,2.67
2019-04-06T15:12:32.125Z,2.93
2019-04-06T15:17:40.164Z,2.93
2019-04-06T15:23:01.302Z,4.43
2019-04-06T15:28:18.588Z,3.50
2019-04-06T15:33:26.603Z,2.57
2019-04-06T15:38:31.713Z,3.53
2019-04-06T15:43:39.789Z,3.03
2019-04-06T15:49:02.965Z,3.20
2019-04-06T15:54:07.986Z,2.70
2019-04-06T15:59:20.141Z,4.30
2019-04-06T16:04:41.502Z,2.07
2019-04-06T16:09:46.531Z,2.07
2019-04-06T16:15:07.815Z,3.27
2019-04-06T16:20:12.923Z,4.47
2019-04-06T16:25:20.663Z,2.43
2019-04-06T16:30:29.014Z,2.13
2019-04-06T16:35:37.393Z,2.40
2019-04-06T16:40:45.396Z,1.87
2019-04-06T16:45:59.401Z,3.33
2019-04-06T16:51:22.392Z,2.53
2019-04-06T16:56:27.554Z,2.47
2019-04-06T17:01:35.492Z,1.70
2019-04-06T17:06:56.887Z,2.40
2019-04-06T17:12:16.731Z,1.70
2019-04-06T17:17:24.467Z,1.50
2019-04-06T17:22:35.199Z,1.50
2019-04-06T17:27:40.215Z,1.70
2019-04-06T17:33:01.638Z,4.57
2019-04-06T17:38:15.385Z,2.37
2019-04-06T17:43:36.516Z,2.20
2019-04-06T17:48:47.495Z,1.73
2019-04-06T17:53:52.587Z,1.73
2019-04-06T17:58:57.616Z,2.20
2019-04-06T18:04:18.661Z,3.40
2019-04-06T18:09:26.631Z,2.00
2019-04-06T18:14:30.352Z,1.87
2019-04-06T18:19:34.815Z,2.40
2019-04-06T18:24:38.618Z,3.27
2019-04-06T18:29:42.065Z,2.17
2019-04-06T18:34:45.833Z,2.60
2019-04-06T18:39:50.864Z,2.40
2019-04-06T18:44:54.543Z,1.87
2019-04-06T18:49:58.009Z,2.40
2019-04-06T18:55:01.375Z,1.67
2019-04-06T19:00:13.359Z,1.70
2019-04-06T19:05:17.330Z,2.10
2019-04-06T19:10:23.471Z,1.80
2019-04-06T19:15:26.860Z,1.90
2019-04-06T19:20:30.437Z,2.40
2019-04-06T19:25:33.865Z,2.03
2019-04-06T19:30:37.475Z,2.33
2019-04-06T19:35:40.828Z,2.60
2019-04-06T19:40:44.214Z,2.10
2019-04-06T19:45:47.633Z,1.90
2019-04-06T19:50:51.563Z,2.23
2019-04-06T19:55:55.063Z,2.00
2019-04-06T20:00:58.688Z,2.73
2019-04-06T20:06:02.626Z,4.17
2019-04-06T20:11:06.333Z,2.70
2019-04-06T20:16:09.878Z,2.47
2019-04-06T20:21:13.275Z,2.67
2019-04-06T20:26:16.674Z,3.17
2019-04-06T20:31:20.684Z,2.77
2019-04-06T20:36:24.106Z,3.80
2019-04-06T20:41:27.878Z,3.47
2019-04-06T20:46:31.243Z,2.47
2019-04-06T20:51:34.629Z,1.80
2019-04-06T20:56:38.017Z,2.70
2019-04-06T21:01:41.677Z,3.23
2019-04-06T21:06:45.072Z,4.03
2019-04-06T21:11:48.970Z,2.23
2019-04-06T21:16:53.400Z,4.00
2019-04-06T21:21:58.825Z,2.83
2019-04-06T21:27:02.194Z,4.13
2019-04-06T21:32:06.295Z,2.50
2019-04-06T21:37:09.841Z,6.40
2019-04-06T21:42:13.243Z,4.23
2019-04-06T21:47:16.829Z,3.33
2019-04-06T21:52:20.334Z,3.17
2019-04-06T21:57:24.612Z,2.70
2019-04-06T22:02:28.612Z,4.10
2019-04-06T22:07:32.434Z,2.23
2019-04-06T22:12:35.992Z,2.63
2019-04-06T22:17:39.983Z,4.03
2019-04-06T22:22:43.447Z,2.57
2019-04-06T22:27:47.537Z,2.50
2019-04-06T22:32:51.366Z,2.87
2019-04-06T22:37:56.118Z,2.57
2019-04-06T22:42:59.749Z,2.90
2019-04-06T22:48:03.539Z,2.80
2019-04-06T22:53:07.509Z,2.47
2019-04-06T22:58:11.026Z,2.40
2019-04-06T23:03:32.258Z,3.43
2019-04-06T23:08:35.758Z,2.53
2019-04-06T23:13:39.390Z,3.13
2019-04-06T23:18:42.831Z,3.00
2019-04-06T23:23:46.472Z,2.20
2019-04-06T23:28:50.260Z,1.83
2019-04-06T23:33:54.198Z,1.73
2019-04-06T23:38:57.562Z,5.43
2019-04-06T23:44:01.466Z,2.10
2019-04-06T23:49:05.470Z,1.97
2019-04-06T23:54:08.845Z,1.53
2019-04-06T23:59:12.215Z,4.00
